sensor_id;sensor_type;location;lat;lon;timestamp;P1;durP1;ratioP1;P2;durP2;ratioP2
29202;SDS011;16245;51.170;4.884;2023-01-28T00:01:10;11.30;;;9.93;;
29202;SDS011;16245;51.170;4.884;2023-01-28T00:03:40;12.23;;;10.60;;
29202;SDS011;16245;51.170;4.884;2023-01-28T00:06:07;11.35;;;9.07;;
29202;SDS011;16245;51.170;4.884;2023-01-28T00:08:37;10.98;;;9.77;;
29202;SDS011;16245;51.170;4.884;2023-01-28T00:11:03;11.98;;;9.88;;
29202;SDS011;16245;51.170;4.884;2023-01-28T00:13:31;12.40;;;10.38;;
29202;SDS011;16245;51.170;4.884;2023-01-28T00:15:58;10.65;;;9.35;;
29202;SDS011;16245;51.170;4.884;2023-01-28T00:18:25;11.25;;;9.50;;
29202;SDS011;16245;51.170;4.884;2023-01-28T00:20:58;12.98;;;10.57;;
29202;SDS011;16245;51.170;4.884;2023-01-28T00:23:28;12.13;;;10.23;;
29202;SDS011;16245;51.170;4.884;2023-01-28T00:25:57;13.20;;;10.65;;
29202;SDS011;16245;51.170;4.884;2023-01-28T00:28:24;12.68;;;10.15;;
29202;SDS011;16245;51.170;4.884;2023-01-28T00:30:49;12.48;;;9.88;;
29202;SDS011;16245;51.170;4.884;2023-01-28T00:33:15;14.30;;;10.27;;
29202;SDS011;16245;51.170;4.884;2023-01-28T00:35:41;12.80;;;10.45;;
29202;SDS011;16245;51.170;4.884;2023-01-28T00:38:07;12.27;;;9.50;;
29202;SDS011;16245;51.170;4.884;2023-01-28T00:40:33;13.70;;;9.38;;
29202;SDS011;16245;51.170;4.884;2023-01-28T00:42:59;11.98;;;9.88;;
29202;SDS011;16245;51.170;4.884;2023-01-28T00:45:25;13.50;;;11.07;;
29202;SDS011;16245;51.170;4.884;2023-01-28T00:47:50;12.38;;;9.88;;
29202;SDS011;16245;51.170;4.884;2023-01-28T00:50:16;12.15;;;10.63;;
29202;SDS011;16245;51.170;4.884;2023-01-28T00:52:42;14.68;;;10.30;;
29202;SDS011;16245;51.170;4.884;2023-01-28T00:55:08;14.80;;;11.52;;
29202;SDS011;16245;51.170;4.884;2023-01-28T00:57:34;11.88;;;9.95;;
29202;SDS011;16245;51.170;4.884;2023-01-28T00:59:59;13.18;;;10.68;;
29202;SDS011;16245;51.170;4.884;2023-01-28T01:02:25;15.23;;;11.82;;
29202;SDS011;16245;51.170;4.884;2023-01-28T01:04:51;13.25;;;10.32;;
29202;SDS011;16245;51.170;4.884;2023-01-28T01:07:23;13.32;;;10.38;;
29202;SDS011;16245;51.170;4.884;2023-01-28T01:09:59;12.30;;;10.05;;
29202;SDS011;16245;51.170;4.884;2023-01-28T01:12:26;13.77;;;10.23;;
29202;SDS011;16245;51.170;4.884;2023-01-28T01:14:52;16.45;;;12.07;;
29202;SDS011;16245;51.170;4.884;2023-01-28T01:17:18;13.88;;;10.73;;
29202;SDS011;16245;51.170;4.884;2023-01-28T01:19:45;14.63;;;11.57;;
29202;SDS011;16245;51.170;4.884;2023-01-28T01:22:10;13.82;;;9.95;;
29202;SDS011;16245;51.170;4.884;2023-01-28T01:24:36;14.40;;;10.77;;
29202;SDS011;16245;51.170;4.884;2023-01-28T01:27:02;13.95;;;10.90;;
29202;SDS011;16245;51.170;4.884;2023-01-28T01:29:29;13.10;;;10.77;;
29202;SDS011;16245;51.170;4.884;2023-01-28T01:31:55;13.65;;;10.65;;
29202;SDS011;16245;51.170;4.884;2023-01-28T01:34:21;13.57;;;10.50;;
29202;SDS011;16245;51.170;4.884;2023-01-28T01:36:47;13.38;;;10.35;;
29202;SDS011;16245;51.170;4.884;2023-01-28T01:39:12;13.23;;;10.13;;
29202;SDS011;16245;51.170;4.884;2023-01-28T01:41:38;14.05;;;11.10;;
29202;SDS011;16245;51.170;4.884;2023-01-28T01:44:04;14.85;;;10.98;;
29202;SDS011;16245;51.170;4.884;2023-01-28T01:46:37;13.77;;;10.50;;
29202;SDS011;16245;51.170;4.884;2023-01-28T01:49:21;12.52;;;10.35;;
29202;SDS011;16245;51.170;4.884;2023-01-28T01:52:23;13.25;;;10.90;;
29202;SDS011;16245;51.170;4.884;2023-01-28T01:54:43;13.35;;;9.68;;
29202;SDS011;16245;51.170;4.884;2023-01-28T01:57:13;12.43;;;9.85;;
29202;SDS011;16245;51.170;4.884;2023-01-28T01:59:43;13.48;;;10.63;;
29202;SDS011;16245;51.170;4.884;2023-01-28T02:02:09;13.98;;;10.82;;
29202;SDS011;16245;51.170;4.884;2023-01-28T02:04:38;13.35;;;9.98;;
29202;SDS011;16245;51.170;4.884;2023-01-28T02:07:05;13.27;;;9.88;;
29202;SDS011;16245;51.170;4.884;2023-01-28T02:09:34;12.32;;;9.90;;
29202;SDS011;16245;51.170;4.884;2023-01-28T02:12:06;13.68;;;10.25;;
29202;SDS011;16245;51.170;4.884;2023-01-28T02:14:36;12.95;;;10.00;;
29202;SDS011;16245;51.170;4.884;2023-01-28T02:17:06;13.13;;;9.98;;
29202;SDS011;16245;51.170;4.884;2023-01-28T02:19:39;13.05;;;9.80;;
29202;SDS011;16245;51.170;4.884;2023-01-28T02:22:15;14.20;;;10.27;;
29202;SDS011;16245;51.170;4.884;2023-01-28T02:28:06;11.88;;;10.05;;
29202;SDS011;16245;51.170;4.884;2023-01-28T02:33:43;12.23;;;9.65;;
29202;SDS011;16245;51.170;4.884;2023-01-28T02:36:22;14.00;;;10.52;;
29202;SDS011;16245;51.170;4.884;2023-01-28T02:39:00;13.48;;;10.40;;
29202;SDS011;16245;51.170;4.884;2023-01-28T02:41:33;13.57;;;10.85;;
29202;SDS011;16245;51.170;4.884;2023-01-28T02:44:04;13.32;;;10.52;;
29202;SDS011;16245;51.170;4.884;2023-01-28T02:51:52;12.90;;;10.20;;
29202;SDS011;16245;51.170;4.884;2023-01-28T02:54:41;14.90;;;10.52;;
29202;SDS011;16245;51.170;4.884;2023-01-28T02:57:25;13.25;;;11.00;;
29202;SDS011;16245;51.170;4.884;2023-01-28T03:00:11;14.15;;;9.82;;
29202;SDS011;16245;51.170;4.884;2023-01-28T03:05:27;13.27;;;10.18;;
29202;SDS011;16245;51.170;4.884;2023-01-28T03:07:57;13.55;;;10.80;;
29202;SDS011;16245;51.170;4.884;2023-01-28T03:10:24;14.35;;;11.52;;
29202;SDS011;16245;51.170;4.884;2023-01-28T03:12:53;13.88;;;10.48;;
29202;SDS011;16245;51.170;4.884;2023-01-28T03:15:44;14.18;;;10.75;;
29202;SDS011;16245;51.170;4.884;2023-01-28T03:18:32;13.68;;;11.05;;
29202;SDS011;16245;51.170;4.884;2023-01-28T03:21:27;13.13;;;10.55;;
29202;SDS011;16245;51.170;4.884;2023-01-28T03:24:22;12.55;;;9.68;;
29202;SDS011;16245;51.170;4.884;2023-01-28T03:27:15;12.73;;;9.73;;
29202;SDS011;16245;51.170;4.884;2023-01-28T03:30:10;14.23;;;10.50;;
29202;SDS011;16245;51.170;4.884;2023-01-28T03:32:58;12.10;;;9.80;;
29202;SDS011;16245;51.170;4.884;2023-01-28T03:35:42;12.10;;;9.88;;
29202;SDS011;16245;51.170;4.884;2023-01-28T03:38:28;12.38;;;9.60;;
29202;SDS011;16245;51.170;4.884;2023-01-28T03:41:02;12.85;;;9.63;;
29202;SDS011;16245;51.170;4.884;2023-01-28T03:43:28;12.45;;;9.38;;
29202;SDS011;16245;51.170;4.884;2023-01-28T03:45:54;11.73;;;9.70;;
29202;SDS011;16245;51.170;4.884;2023-01-28T03:48:22;14.07;;;10.30;;
29202;SDS011;16245;51.170;4.884;2023-01-28T03:50:49;11.98;;;9.43;;
29202;SDS011;16245;51.170;4.884;2023-01-28T03:53:16;13.02;;;10.40;;
29202;SDS011;16245;51.170;4.884;2023-01-28T03:55:42;12.75;;;9.98;;
29202;SDS011;16245;51.170;4.884;2023-01-28T03:58:09;10.70;;;8.23;;
29202;SDS011;16245;51.170;4.884;2023-01-28T04:00:35;13.05;;;9.45;;
29202;SDS011;16245;51.170;4.884;2023-01-28T04:03:05;13.05;;;9.23;;
29202;SDS011;16245;51.170;4.884;2023-01-28T04:05:45;11.85;;;9.05;;
29202;SDS011;16245;51.170;4.884;2023-01-28T04:08:21;11.77;;;9.65;;
29202;SDS011;16245;51.170;4.884;2023-01-28T04:10:47;13.00;;;9.25;;
29202;SDS011;16245;51.170;4.884;2023-01-28T04:13:13;10.88;;;8.85;;
29202;SDS011;16245;51.170;4.884;2023-01-28T04:15:39;11.70;;;8.80;;
29202;SDS011;16245;51.170;4.884;2023-01-28T04:18:07;13.40;;;9.80;;
29202;SDS011;16245;51.170;4.884;2023-01-28T04:20:33;12.90;;;9.45;;
29202;SDS011;16245;51.170;4.884;2023-01-28T04:22:59;12.68;;;9.25;;
29202;SDS011;16245;51.170;4.884;2023-01-28T04:25:25;10.93;;;8.77;;
29202;SDS011;16245;51.170;4.884;2023-01-28T04:27:51;11.43;;;9.52;;
29202;SDS011;16245;51.170;4.884;2023-01-28T04:30:17;11.48;;;8.90;;
29202;SDS011;16245;51.170;4.884;2023-01-28T04:32:43;10.07;;;8.50;;
29202;SDS011;16245;51.170;4.884;2023-01-28T04:35:14;11.57;;;9.30;;
29202;SDS011;16245;51.170;4.884;2023-01-28T04:37:40;10.43;;;8.55;;
29202;SDS011;16245;51.170;4.884;2023-01-28T04:40:07;9.55;;;8.13;;
29202;SDS011;16245;51.170;4.884;2023-01-28T04:42:33;10.68;;;8.50;;
29202;SDS011;16245;51.170;4.884;2023-01-28T04:44:59;10.13;;;8.57;;
29202;SDS011;16245;51.170;4.884;2023-01-28T04:47:25;10.45;;;8.88;;
29202;SDS011;16245;51.170;4.884;2023-01-28T04:49:50;9.93;;;8.13;;
29202;SDS011;16245;51.170;4.884;2023-01-28T04:52:16;9.25;;;7.70;;
29202;SDS011;16245;51.170;4.884;2023-01-28T04:54:42;9.77;;;8.25;;
29202;SDS011;16245;51.170;4.884;2023-01-28T04:57:07;10.07;;;8.63;;
29202;SDS011;16245;51.170;4.884;2023-01-28T04:59:33;9.88;;;7.68;;
29202;SDS011;16245;51.170;4.884;2023-01-28T05:01:58;9.70;;;8.05;;
29202;SDS011;16245;51.170;4.884;2023-01-28T05:04:24;10.40;;;8.43;;
29202;SDS011;16245;51.170;4.884;2023-01-28T05:06:50;10.70;;;8.35;;
29202;SDS011;16245;51.170;4.884;2023-01-28T05:09:15;11.05;;;8.60;;
29202;SDS011;16245;51.170;4.884;2023-01-28T05:11:41;9.98;;;7.97;;
29202;SDS011;16245;51.170;4.884;2023-01-28T05:14:07;9.48;;;8.40;;
29202;SDS011;16245;51.170;4.884;2023-01-28T05:16:33;10.35;;;8.60;;
29202;SDS011;16245;51.170;4.884;2023-01-28T05:18:59;9.95;;;8.00;;
29202;SDS011;16245;51.170;4.884;2023-01-28T05:21:26;9.38;;;7.95;;
29202;SDS011;16245;51.170;4.884;2023-01-28T05:23:52;8.85;;;7.50;;
29202;SDS011;16245;51.170;4.884;2023-01-28T05:26:17;10.70;;;8.82;;
29202;SDS011;16245;51.170;4.884;2023-01-28T05:28:43;9.65;;;8.02;;
29202;SDS011;16245;51.170;4.884;2023-01-28T05:31:09;10.23;;;8.15;;
29202;SDS011;16245;51.170;4.884;2023-01-28T05:33:35;11.15;;;8.43;;
29202;SDS011;16245;51.170;4.884;2023-01-28T05:36:01;11.00;;;8.30;;
29202;SDS011;16245;51.170;4.884;2023-01-28T05:38:27;9.50;;;8.23;;
29202;SDS011;16245;51.170;4.884;2023-01-28T05:40:52;9.82;;;7.78;;
29202;SDS011;16245;51.170;4.884;2023-01-28T05:43:18;10.55;;;8.45;;
29202;SDS011;16245;51.170;4.884;2023-01-28T05:45:44;10.30;;;8.43;;
29202;SDS011;16245;51.170;4.884;2023-01-28T05:48:11;9.98;;;8.23;;
29202;SDS011;16245;51.170;4.884;2023-01-28T05:50:37;9.90;;;8.10;;
29202;SDS011;16245;51.170;4.884;2023-01-28T05:53:06;9.02;;;7.40;;
29202;SDS011;16245;51.170;4.884;2023-01-28T05:55:31;9.65;;;8.23;;
29202;SDS011;16245;51.170;4.884;2023-01-28T05:57:57;10.10;;;8.50;;
29202;SDS011;16245;51.170;4.884;2023-01-28T06:00:23;10.07;;;8.05;;
29202;SDS011;16245;51.170;4.884;2023-01-28T06:02:49;10.10;;;8.27;;
29202;SDS011;16245;51.170;4.884;2023-01-28T06:05:16;10.45;;;8.45;;
29202;SDS011;16245;51.170;4.884;2023-01-28T06:07:45;10.43;;;9.05;;
29202;SDS011;16245;51.170;4.884;2023-01-28T06:10:11;9.73;;;8.05;;
29202;SDS011;16245;51.170;4.884;2023-01-28T06:12:38;9.60;;;7.63;;
29202;SDS011;16245;51.170;4.884;2023-01-28T06:15:04;9.23;;;7.28;;
29202;SDS011;16245;51.170;4.884;2023-01-28T06:17:30;10.77;;;8.57;;
29202;SDS011;16245;51.170;4.884;2023-01-28T06:19:56;12.02;;;8.48;;
29202;SDS011;16245;51.170;4.884;2023-01-28T06:22:21;9.48;;;7.82;;
29202;SDS011;16245;51.170;4.884;2023-01-28T06:24:47;9.93;;;8.55;;
29202;SDS011;16245;51.170;4.884;2023-01-28T06:27:13;9.48;;;7.75;;
29202;SDS011;16245;51.170;4.884;2023-01-28T06:29:38;11.73;;;8.27;;
29202;SDS011;16245;51.170;4.884;2023-01-28T06:32:04;13.02;;;9.05;;
29202;SDS011;16245;51.170;4.884;2023-01-28T06:34:30;10.05;;;8.30;;
29202;SDS011;16245;51.170;4.884;2023-01-28T06:36:56;9.30;;;7.68;;
29202;SDS011;16245;51.170;4.884;2023-01-28T06:39:21;11.43;;;8.40;;
29202;SDS011;16245;51.170;4.884;2023-01-28T06:41:48;9.23;;;7.95;;
29202;SDS011;16245;51.170;4.884;2023-01-28T06:44:14;9.68;;;8.20;;
29202;SDS011;16245;51.170;4.884;2023-01-28T06:46:40;10.77;;;8.02;;
29202;SDS011;16245;51.170;4.884;2023-01-28T06:49:06;10.20;;;8.90;;
29202;SDS011;16245;51.170;4.884;2023-01-28T06:51:32;11.93;;;8.57;;
29202;SDS011;16245;51.170;4.884;2023-01-28T06:53:58;13.10;;;9.95;;
29202;SDS011;16245;51.170;4.884;2023-01-28T06:56:23;11.30;;;9.40;;
29202;SDS011;16245;51.170;4.884;2023-01-28T06:58:49;10.65;;;8.73;;
29202;SDS011;16245;51.170;4.884;2023-01-28T07:01:15;11.68;;;9.13;;
29202;SDS011;16245;51.170;4.884;2023-01-28T07:03:41;10.55;;;8.48;;
29202;SDS011;16245;51.170;4.884;2023-01-28T07:06:06;12.98;;;9.55;;
29202;SDS011;16245;51.170;4.884;2023-01-28T07:08:32;10.48;;;9.15;;
29202;SDS011;16245;51.170;4.884;2023-01-28T07:10:58;11.05;;;8.80;;
29202;SDS011;16245;51.170;4.884;2023-01-28T07:13:24;12.40;;;8.85;;
29202;SDS011;16245;51.170;4.884;2023-01-28T07:15:50;11.85;;;8.73;;
29202;SDS011;16245;51.170;4.884;2023-01-28T07:18:16;10.30;;;8.05;;
29202;SDS011;16245;51.170;4.884;2023-01-28T07:20:42;12.95;;;9.68;;
29202;SDS011;16245;51.170;4.884;2023-01-28T07:23:07;10.73;;;9.52;;
29202;SDS011;16245;51.170;4.884;2023-01-28T07:25:33;12.73;;;9.90;;
29202;SDS011;16245;51.170;4.884;2023-01-28T07:27:59;12.07;;;9.13;;
29202;SDS011;16245;51.170;4.884;2023-01-28T07:30:24;12.32;;;9.65;;
29202;SDS011;16245;51.170;4.884;2023-01-28T07:32:54;15.88;;;11.80;;
29202;SDS011;16245;51.170;4.884;2023-01-28T07:35:21;11.55;;;9.38;;
29202;SDS011;16245;51.170;4.884;2023-01-28T07:37:50;11.52;;;9.57;;
29202;SDS011;16245;51.170;4.884;2023-01-28T07:40:16;12.10;;;9.98;;
29202;SDS011;16245;51.170;4.884;2023-01-28T07:42:42;14.77;;;10.48;;
29202;SDS011;16245;51.170;4.884;2023-01-28T07:45:16;14.75;;;10.55;;
29202;SDS011;16245;51.170;4.884;2023-01-28T07:47:41;28.40;;;15.38;;
29202;SDS011;16245;51.170;4.884;2023-01-28T07:50:08;12.90;;;9.82;;
29202;SDS011;16245;51.170;4.884;2023-01-28T07:52:35;15.10;;;10.43;;
29202;SDS011;16245;51.170;4.884;2023-01-28T07:55:08;12.70;;;9.77;;
29202;SDS011;16245;51.170;4.884;2023-01-28T07:57:35;13.85;;;9.68;;
29202;SDS011;16245;51.170;4.884;2023-01-28T08:00:01;12.70;;;9.98;;
29202;SDS011;16245;51.170;4.884;2023-01-28T08:02:27;11.40;;;9.27;;
29202;SDS011;16245;51.170;4.884;2023-01-28T08:04:54;12.10;;;9.18;;
29202;SDS011;16245;51.170;4.884;2023-01-28T08:07:23;13.07;;;8.80;;
29202;SDS011;16245;51.170;4.884;2023-01-28T08:09:50;11.95;;;8.93;;
29202;SDS011;16245;51.170;4.884;2023-01-28T08:12:15;13.27;;;8.57;;
29202;SDS011;16245;51.170;4.884;2023-01-28T08:14:41;11.90;;;9.35;;
29202;SDS011;16245;51.170;4.884;2023-01-28T08:17:07;13.55;;;9.82;;
29202;SDS011;16245;51.170;4.884;2023-01-28T08:19:33;11.50;;;8.75;;
29202;SDS011;16245;51.170;4.884;2023-01-28T08:21:58;11.70;;;8.80;;
29202;SDS011;16245;51.170;4.884;2023-01-28T08:24:24;12.68;;;9.98;;
29202;SDS011;16245;51.170;4.884;2023-01-28T08:26:50;12.20;;;9.50;;
29202;SDS011;16245;51.170;4.884;2023-01-28T08:29:16;12.30;;;8.85;;
29202;SDS011;16245;51.170;4.884;2023-01-28T08:31:41;13.32;;;9.23;;
29202;SDS011;16245;51.170;4.884;2023-01-28T08:34:07;12.82;;;9.00;;
29202;SDS011;16245;51.170;4.884;2023-01-28T08:36:33;12.05;;;8.70;;
29202;SDS011;16245;51.170;4.884;2023-01-28T08:38:58;13.05;;;9.52;;
29202;SDS011;16245;51.170;4.884;2023-01-28T08:41:24;10.20;;;9.05;;
29202;SDS011;16245;51.170;4.884;2023-01-28T08:43:50;12.75;;;9.50;;
29202;SDS011;16245;51.170;4.884;2023-01-28T08:46:15;11.50;;;9.32;;
29202;SDS011;16245;51.170;4.884;2023-01-28T08:48:41;12.65;;;9.32;;
29202;SDS011;16245;51.170;4.884;2023-01-28T08:51:07;13.90;;;9.45;;
29202;SDS011;16245;51.170;4.884;2023-01-28T08:53:33;11.88;;;9.07;;
29202;SDS011;16245;51.170;4.884;2023-01-28T08:55:58;12.50;;;9.18;;
29202;SDS011;16245;51.170;4.884;2023-01-28T08:58:24;14.50;;;9.20;;
29202;SDS011;16245;51.170;4.884;2023-01-28T09:00:50;13.45;;;9.70;;
29202;SDS011;16245;51.170;4.884;2023-01-28T09:03:16;12.25;;;9.52;;
29202;SDS011;16245;51.170;4.884;2023-01-28T09:05:42;12.25;;;9.13;;
29202;SDS011;16245;51.170;4.884;2023-01-28T09:08:09;14.15;;;9.57;;
29202;SDS011;16245;51.170;4.884;2023-01-28T09:10:37;10.82;;;8.65;;
29202;SDS011;16245;51.170;4.884;2023-01-28T09:13:06;12.57;;;9.85;;
29202;SDS011;16245;51.170;4.884;2023-01-28T09:15:34;12.15;;;9.77;;
29202;SDS011;16245;51.170;4.884;2023-01-28T09:18:01;12.82;;;9.52;;
29202;SDS011;16245;51.170;4.884;2023-01-28T09:20:27;11.23;;;8.63;;
29202;SDS011;16245;51.170;4.884;2023-01-28T09:22:53;12.23;;;8.95;;
29202;SDS011;16245;51.170;4.884;2023-01-28T09:25:19;11.55;;;9.43;;
29202;SDS011;16245;51.170;4.884;2023-01-28T09:27:45;11.50;;;8.60;;
29202;SDS011;16245;51.170;4.884;2023-01-28T09:30:11;13.38;;;8.77;;
29202;SDS011;16245;51.170;4.884;2023-01-28T09:32:37;11.40;;;8.52;;
29202;SDS011;16245;51.170;4.884;2023-01-28T09:35:03;10.82;;;8.45;;
29202;SDS011;16245;51.170;4.884;2023-01-28T09:37:29;10.93;;;8.68;;
29202;SDS011;16245;51.170;4.884;2023-01-28T09:39:55;11.00;;;8.57;;
29202;SDS011;16245;51.170;4.884;2023-01-28T09:47:41;12.88;;;9.35;;
29202;SDS011;16245;51.170;4.884;2023-01-28T09:50:15;11.85;;;8.75;;
29202;SDS011;16245;51.170;4.884;2023-01-28T09:53:00;12.00;;;9.48;;
29202;SDS011;16245;51.170;4.884;2023-01-28T09:55:31;14.02;;;10.23;;
29202;SDS011;16245;51.170;4.884;2023-01-28T09:57:57;12.15;;;9.63;;
29202;SDS011;16245;51.170;4.884;2023-01-28T10:00:25;10.60;;;8.65;;
29202;SDS011;16245;51.170;4.884;2023-01-28T10:06:21;12.77;;;9.40;;
29202;SDS011;16245;51.170;4.884;2023-01-28T10:17:16;12.40;;;10.10;;
29202;SDS011;16245;51.170;4.884;2023-01-28T10:19:55;13.18;;;10.57;;
29202;SDS011;16245;51.170;4.884;2023-01-28T10:22:29;17.25;;;11.75;;
29202;SDS011;16245;51.170;4.884;2023-01-28T10:25:01;13.07;;;10.45;;
29202;SDS011;16245;51.170;4.884;2023-01-28T10:27:33;14.13;;;11.48;;
29202;SDS011;16245;51.170;4.884;2023-01-28T10:30:08;15.27;;;11.32;;
29202;SDS011;16245;51.170;4.884;2023-01-28T10:32:48;14.93;;;11.18;;
29202;SDS011;16245;51.170;4.884;2023-01-28T10:35:17;16.45;;;11.35;;
29202;SDS011;16245;51.170;4.884;2023-01-28T10:37:43;14.07;;;10.88;;
29202;SDS011;16245;51.170;4.884;2023-01-28T10:40:12;14.90;;;10.75;;
29202;SDS011;16245;51.170;4.884;2023-01-28T10:42:40;12.55;;;10.70;;
29202;SDS011;16245;51.170;4.884;2023-01-28T10:50:17;13.73;;;10.75;;
29202;SDS011;16245;51.170;4.884;2023-01-28T10:52:57;13.68;;;10.45;;
29202;SDS011;16245;51.170;4.884;2023-01-28T10:55:25;15.90;;;11.75;;
29202;SDS011;16245;51.170;4.884;2023-01-28T10:57:53;16.40;;;11.45;;
29202;SDS011;16245;51.170;4.884;2023-01-28T11:02:49;14.00;;;10.93;;
29202;SDS011;16245;51.170;4.884;2023-01-28T11:05:23;13.88;;;10.68;;
29202;SDS011;16245;51.170;4.884;2023-01-28T11:08:09;15.55;;;10.32;;
29202;SDS011;16245;51.170;4.884;2023-01-28T11:10:39;14.27;;;10.63;;
29202;SDS011;16245;51.170;4.884;2023-01-28T11:13:11;14.48;;;10.55;;
29202;SDS011;16245;51.170;4.884;2023-01-28T11:18:31;14.75;;;11.38;;
29202;SDS011;16245;51.170;4.884;2023-01-28T11:21:00;16.00;;;11.07;;
29202;SDS011;16245;51.170;4.884;2023-01-28T11:23:30;14.60;;;10.82;;
29202;SDS011;16245;51.170;4.884;2023-01-28T11:28:30;13.48;;;10.35;;
29202;SDS011;16245;51.170;4.884;2023-01-28T11:30:57;14.68;;;11.25;;
29202;SDS011;16245;51.170;4.884;2023-01-28T11:33:30;13.38;;;10.68;;
29202;SDS011;16245;51.170;4.884;2023-01-28T11:36:18;13.85;;;10.23;;
29202;SDS011;16245;51.170;4.884;2023-01-28T11:38:49;14.40;;;10.85;;
29202;SDS011;16245;51.170;4.884;2023-01-28T11:41:24;14.05;;;10.68;;
29202;SDS011;16245;51.170;4.884;2023-01-28T11:43:50;14.40;;;10.98;;
29202;SDS011;16245;51.170;4.884;2023-01-28T11:57:54;14.75;;;10.75;;
29202;SDS011;16245;51.170;4.884;2023-01-28T12:06:12;13.88;;;10.65;;
29202;SDS011;16245;51.170;4.884;2023-01-28T12:12:09;16.40;;;12.02;;
29202;SDS011;16245;51.170;4.884;2023-01-28T12:20:12;15.07;;;11.07;;
29202;SDS011;16245;51.170;4.884;2023-01-28T12:31:09;14.23;;;10.88;;
29202;SDS011;16245;51.170;4.884;2023-01-28T12:41:31;16.35;;;11.80;;
29202;SDS011;16245;51.170;4.884;2023-01-28T12:44:13;16.27;;;12.18;;
29202;SDS011;16245;51.170;4.884;2023-01-28T12:52:08;15.68;;;11.35;;
29202;SDS011;16245;51.170;4.884;2023-01-28T12:55:14;17.00;;;11.90;;
29202;SDS011;16245;51.170;4.884;2023-01-28T12:57:44;16.90;;;11.70;;
29202;SDS011;16245;51.170;4.884;2023-01-28T13:00:29;15.00;;;11.15;;
29202;SDS011;16245;51.170;4.884;2023-01-28T13:03:26;15.57;;;11.80;;
29202;SDS011;16245;51.170;4.884;2023-01-28T13:06:09;14.07;;;10.93;;
29202;SDS011;16245;51.170;4.884;2023-01-28T13:08:39;12.73;;;9.68;;
29202;SDS011;16245;51.170;4.884;2023-01-28T13:11:05;12.82;;;10.35;;
29202;SDS011;16245;51.170;4.884;2023-01-28T13:13:38;14.13;;;10.82;;
29202;SDS011;16245;51.170;4.884;2023-01-28T13:16:09;14.68;;;11.25;;
29202;SDS011;16245;51.170;4.884;2023-01-28T13:21:05;14.80;;;10.63;;
29202;SDS011;16245;51.170;4.884;2023-01-28T13:23:43;11.63;;;9.80;;
29202;SDS011;16245;51.170;4.884;2023-01-28T13:28:43;14.07;;;10.82;;
29202;SDS011;16245;51.170;4.884;2023-01-28T13:31:14;12.93;;;10.27;;
29202;SDS011;16245;51.170;4.884;2023-01-28T13:33:46;13.32;;;10.52;;
29202;SDS011;16245;51.170;4.884;2023-01-28T13:36:18;15.82;;;11.32;;
29202;SDS011;16245;51.170;4.884;2023-01-28T13:38:58;13.02;;;10.75;;
29202;SDS011;16245;51.170;4.884;2023-01-28T13:41:35;15.82;;;11.38;;
29202;SDS011;16245;51.170;4.884;2023-01-28T13:44:01;12.68;;;10.20;;
29202;SDS011;16245;51.170;4.884;2023-01-28T13:46:28;15.45;;;11.45;;
29202;SDS011;16245;51.170;4.884;2023-01-28T13:48:55;13.15;;;10.23;;
29202;SDS011;16245;51.170;4.884;2023-01-28T13:51:27;14.05;;;11.43;;
29202;SDS011;16245;51.170;4.884;2023-01-28T13:54:16;13.20;;;10.85;;
29202;SDS011;16245;51.170;4.884;2023-01-28T14:10:54;12.43;;;9.80;;
29202;SDS011;16245;51.170;4.884;2023-01-28T14:16:23;13.15;;;10.52;;
29202;SDS011;16245;51.170;4.884;2023-01-28T14:18:52;11.52;;;9.60;;
29202;SDS011;16245;51.170;4.884;2023-01-28T14:21:24;12.50;;;9.98;;
29202;SDS011;16245;51.170;4.884;2023-01-28T14:23:53;11.05;;;9.48;;
29202;SDS011;16245;51.170;4.884;2023-01-28T14:26:39;13.32;;;9.82;;
29202;SDS011;16245;51.170;4.884;2023-01-28T14:31:42;12.90;;;9.82;;
29202;SDS011;16245;51.170;4.884;2023-01-28T14:36:58;12.18;;;9.02;;
29202;SDS011;16245;51.170;4.884;2023-01-28T14:39:30;12.18;;;9.25;;
29202;SDS011;16245;51.170;4.884;2023-01-28T14:41:59;9.95;;;8.50;;
29202;SDS011;16245;51.170;4.884;2023-01-28T14:44:33;10.45;;;8.38;;
29202;SDS011;16245;51.170;4.884;2023-01-28T14:57:47;12.40;;;9.85;;
29202;SDS011;16245;51.170;4.884;2023-01-28T15:02:51;12.20;;;10.10;;
29202;SDS011;16245;51.170;4.884;2023-01-28T15:05:26;12.45;;;10.43;;
29202;SDS011;16245;51.170;4.884;2023-01-28T15:07:53;12.15;;;9.88;;
29202;SDS011;16245;51.170;4.884;2023-01-28T15:10:30;13.75;;;10.55;;
29202;SDS011;16245;51.170;4.884;2023-01-28T15:13:04;12.20;;;9.80;;
29202;SDS011;16245;51.170;4.884;2023-01-28T15:15:37;11.50;;;9.57;;
29202;SDS011;16245;51.170;4.884;2023-01-28T15:18:50;11.65;;;10.07;;
29202;SDS011;16245;51.170;4.884;2023-01-28T15:20:54;14.23;;;11.00;;
29202;SDS011;16245;51.170;4.884;2023-01-28T15:23:27;13.23;;;10.65;;
29202;SDS011;16245;51.170;4.884;2023-01-28T15:28:44;18.55;;;11.15;;
29202;SDS011;16245;51.170;4.884;2023-01-28T15:34:09;14.45;;;10.82;;
29202;SDS011;16245;51.170;4.884;2023-01-28T15:36:38;14.13;;;10.52;;
29202;SDS011;16245;51.170;4.884;2023-01-28T15:39:04;12.13;;;9.88;;
29202;SDS011;16245;51.170;4.884;2023-01-28T15:41:37;12.57;;;9.57;;
29202;SDS011;16245;51.170;4.884;2023-01-28T15:44:05;12.02;;;9.63;;
29202;SDS011;16245;51.170;4.884;2023-01-28T15:46:31;12.63;;;9.68;;
29202;SDS011;16245;51.170;4.884;2023-01-28T15:49:01;11.70;;;9.05;;
29202;SDS011;16245;51.170;4.884;2023-01-28T15:51:31;14.05;;;9.98;;
29202;SDS011;16245;51.170;4.884;2023-01-28T15:54:04;11.60;;;9.70;;
29202;SDS011;16245;51.170;4.884;2023-01-28T15:56:33;12.82;;;9.63;;
29202;SDS011;16245;51.170;4.884;2023-01-28T15:59:16;11.57;;;9.18;;
29202;SDS011;16245;51.170;4.884;2023-01-28T16:01:45;11.75;;;9.05;;
29202;SDS011;16245;51.170;4.884;2023-01-28T16:04:21;11.82;;;9.32;;
29202;SDS011;16245;51.170;4.884;2023-01-28T16:06:53;11.40;;;9.50;;
29202;SDS011;16245;51.170;4.884;2023-01-28T16:11:50;12.90;;;9.60;;
29202;SDS011;16245;51.170;4.884;2023-01-28T16:16:48;10.23;;;8.45;;
29202;SDS011;16245;51.170;4.884;2023-01-28T16:19:20;12.00;;;9.32;;
29202;SDS011;16245;51.170;4.884;2023-01-28T16:21:56;12.13;;;7.93;;
29202;SDS011;16245;51.170;4.884;2023-01-28T16:24:24;10.88;;;8.77;;
29202;SDS011;16245;51.170;4.884;2023-01-28T16:27:00;12.48;;;8.55;;
29202;SDS011;16245;51.170;4.884;2023-01-28T16:29:28;14.30;;;9.45;;
29202;SDS011;16245;51.170;4.884;2023-01-28T16:31:54;15.10;;;8.35;;
29202;SDS011;16245;51.170;4.884;2023-01-28T16:34:21;10.77;;;7.88;;
29202;SDS011;16245;51.170;4.884;2023-01-28T16:36:47;12.02;;;8.77;;
29202;SDS011;16245;51.170;4.884;2023-01-28T16:39:12;12.13;;;8.68;;
29202;SDS011;16245;51.170;4.884;2023-01-28T16:41:42;10.48;;;8.07;;
29202;SDS011;16245;51.170;4.884;2023-01-28T16:44:13;11.02;;;8.10;;
29202;SDS011;16245;51.170;4.884;2023-01-28T16:46:40;11.32;;;8.80;;
29202;SDS011;16245;51.170;4.884;2023-01-28T16:49:07;10.68;;;8.13;;
29202;SDS011;16245;51.170;4.884;2023-01-28T16:51:33;10.90;;;8.30;;
29202;SDS011;16245;51.170;4.884;2023-01-28T16:54:00;10.00;;;7.85;;
29202;SDS011;16245;51.170;4.884;2023-01-28T16:56:28;12.05;;;8.57;;
29202;SDS011;16245;51.170;4.884;2023-01-28T16:58:54;9.80;;;7.63;;
29202;SDS011;16245;51.170;4.884;2023-01-28T17:01:21;15.68;;;10.60;;
29202;SDS011;16245;51.170;4.884;2023-01-28T17:03:46;13.13;;;8.98;;
29202;SDS011;16245;51.170;4.884;2023-01-28T17:06:14;15.00;;;11.80;;
29202;SDS011;16245;51.170;4.884;2023-01-28T17:08:45;17.83;;;13.30;;